뽐뿌
각종 질문, 요청을 할 수 있는 공간입니다.(휴대폰 관련 내용은[휴대폰질문]게시판을 이용해주세요.)
1) 뽐쿠폰을 사용하시면 좀 더 빠르게 답변을 받으실 수 있습니다.[이용방법] 2) 게시 전 검색을 먼저 해주시고, 성의있는 코멘트는 "선택하기"를 눌러주세요.
   번호       글쓴이  제목 등록일 추천    조회   
1023800 완료  [휴대폰/가전] NAS에 백신설치  4 18/06/17 72
1023799 완료
 ▶◀곰오리
 [기타] 통커카드 네이버페이 첫결제 취소?  2 18/06/17 108
1023798 완료  [기타] 뽐뿌 레벨 어떻게 올려요??  40 18/06/17 1 - 5 1303
1023797 질문  [스포츠/레저] 경북 경남 지역으로 수영장있는 독채펜션 좋은곳 있을까요 18/06/17 69
1023796 질문  [휴대폰/가전] 중고폰 보고있는데 업체가 많던데 업체 믿을만 할까요?  4 18/06/17 90
1023795 완료  [휴대폰/가전] Dell latitude 초기화시 키보드가 없으면 완료가 안되나요?  1 18/06/17 57
1023794 완료  [휴대폰/가전] 노트5인데 화면위 이 표시는 뭐죠?  4 18/06/17 100
1023793 요청  [기타] 티스토리 초대장 한장 얻을수 있을까요 ?? 18/06/17 69
1023792 질문  [기타] 뽐뿌에서 중고 상품 팔아보고 싶은데요  5 18/06/16 283
1023791 완료  [기타] 스마트폰 은어 궁금해요  6 18/06/17 106
1023790 완료  [기타] 롯데아이몰 원래 주말에도 상품발송하나요??  1 18/06/17 71
1023789 질문  [휴대폰/가전] A8vsS7vsXZ1  2 18/06/17 162
1023788 질문  [기타] 5월말~6월초 타임스퀘어에서 판매하던 온열마사지기 회사명찾아요.. 18/06/17 61
1023787 완료
 병아리뿅
 [기타] TV 프로그램 제목 찾아요  2 18/06/17 68
1023786 완료  [휴대폰/가전] 제 폰이 바이러스 걸린듯합니다  8 18/06/17 91
1023785 질문  [휴대폰/가전] 컬쳐캐쉬 네이버 쇼핑 경우를 통한 사용 가능한가요?  2 18/06/17 75
1023784 질문  [휴대폰/가전] 페이팔 취소여부 확인 어찌하나요  1 18/06/17 60
1023783 질문  [생활] 미장센 퍼퓸샴푸뷰티플 중성세제인가요?  2 18/06/17 62
1023782 질문  [생활] 부엌 청소하다 질문드립니다.  5 18/06/17 81
1023781 질문  [휴대폰/가전] 핸폰 무음 모드는 어떤것까지 소리가 안나죠?  5 18/06/17 75
1023780 완료  [생활] 렌즈 낄때 눈에 넣는 눈물 어디서 사나요?  3 18/06/17 63
1023779 질문  [휴대폰/가전] 다이소나 동네에서 3구 컴퓨터 전원케이블이나 8자 노트북 케이블 파는곳있을까요?  4 18/06/17 75
1023778 완료  [휴대폰/가전] 언제부턴가 TV소리가 작아요..  4 18/06/17 112
1023777 질문  [생활] kt 인터넷+tv 얼마씩 내고 계신가요?  7 18/06/17 148
1023776 완료  [스포츠/레저] 월드컵 결과 스포 없이 다시보기로 볼 수 있는 방법 뭐 없을까요..ㅜ 18/06/17 122
1023775 질문  [기타] 소니 1000XM2 리퍼 케이블 18/06/17 121
1023774 질문  [휴대폰/가전] Sk인터넷 설치 후 핸드폰  2 18/06/17 131
1023773 질문  [휴대폰/가전] 파나소닉 람대쉬 ES-BST3N 면도망이랑 면도날 어디서 구매하나요? 면도망이 원래 이...  2 18/06/17 119
1023772 질문  [기타] 제발 이 배경음악 이름 좀 알려주세요  1 18/06/17 143
1023771 완료  [생활] 밤하늘의 느리게 반짝이는 게 뭔가요?  48 18/06/16 2 - 0 5949
 -새로고침   -이전페이지  -다음페이지  
1 2 3 45 6 7 8 9 10 다음